sensor_id;sensor_type;location;lat;lon;timestamp;temperature;humidity
18426;DHT22;9340;48.756;9.226;2022-10-31T00:01:16;10.80;99.90
18426;DHT22;9340;48.756;9.226;2022-10-31T00:03:43;10.80;99.90
18426;DHT22;9340;48.756;9.226;2022-10-31T00:06:11;10.80;99.90
18426;DHT22;9340;48.756;9.226;2022-10-31T00:08:38;10.80;99.90
18426;DHT22;9340;48.756;9.226;2022-10-31T00:11:08;10.80;99.90
18426;DHT22;9340;48.756;9.226;2022-10-31T00:13:35;10.80;99.90
18426;DHT22;9340;48.756;9.226;2022-10-31T00:16:02;10.80;99.90
18426;DHT22;9340;48.756;9.226;2022-10-31T00:18:29;10.80;99.90
18426;DHT22;9340;48.756;9.226;2022-10-31T00:20:59;10.80;99.90
18426;DHT22;9340;48.756;9.226;2022-10-31T00:23:28;10.70;99.90
18426;DHT22;9340;48.756;9.226;2022-10-31T00:25:59;10.70;99.90
18426;DHT22;9340;48.756;9.226;2022-10-31T00:28:26;10.50;99.90
18426;DHT22;9340;48.756;9.226;2022-10-31T00:30:52;10.60;99.90
18426;DHT22;9340;48.756;9.226;2022-10-31T00:33:19;10.50;99.90
18426;DHT22;9340;48.756;9.226;2022-10-31T00:35:49;10.60;99.90
18426;DHT22;9340;48.756;9.226;2022-10-31T00:38:16;10.60;99.90
18426;DHT22;9340;48.756;9.226;2022-10-31T00:40:44;10.60;99.90
18426;DHT22;9340;48.756;9.226;2022-10-31T00:43:11;10.60;99.90
18426;DHT22;9340;48.756;9.226;2022-10-31T00:45:38;10.60;99.90
18426;DHT22;9340;48.756;9.226;2022-10-31T00:48:05;10.50;99.90
18426;DHT22;9340;48.756;9.226;2022-10-31T00:50:32;10.50;99.90
18426;DHT22;9340;48.756;9.226;2022-10-31T00:52:58;10.50;99.90
18426;DHT22;9340;48.756;9.226;2022-10-31T00:55:25;10.50;99.90
18426;DHT22;9340;48.756;9.226;2022-10-31T00:57:53;10.50;99.90
18426;DHT22;9340;48.756;9.226;2022-10-31T01:00:20;10.40;99.90
18426;DHT22;9340;48.756;9.226;2022-10-31T01:02:47;10.30;99.90
18426;DHT22;9340;48.756;9.226;2022-10-31T01:05:13;10.30;99.90
18426;DHT22;9340;48.756;9.226;2022-10-31T01:07:41;10.30;99.90
18426;DHT22;9340;48.756;9.226;2022-10-31T01:10:09;10.30;99.90
18426;DHT22;9340;48.756;9.226;2022-10-31T01:12:36;10.30;99.90
18426;DHT22;9340;48.756;9.226;2022-10-31T01:15:06;10.30;99.90
18426;DHT22;9340;48.756;9.226;2022-10-31T01:17:33;10.30;99.90
18426;DHT22;9340;48.756;9.226;2022-10-31T01:20:00;10.20;99.90
18426;DHT22;9340;48.756;9.226;2022-10-31T01:22:27;10.20;99.90
18426;DHT22;9340;48.756;9.226;2022-10-31T01:24:53;10.20;99.90
18426;DHT22;9340;48.756;9.226;2022-10-31T01:27:20;10.10;99.90
18426;DHT22;9340;48.756;9.226;2022-10-31T01:29:47;10.10;99.90
18426;DHT22;9340;48.756;9.226;2022-10-31T01:32:15;10.20;99.90
18426;DHT22;9340;48.756;9.226;2022-10-31T01:34:42;10.10;99.90
18426;DHT22;9340;48.756;9.226;2022-10-31T01:37:08;10.10;99.90
18426;DHT22;9340;48.756;9.226;2022-10-31T01:39:35;10.10;99.90
18426;DHT22;9340;48.756;9.226;2022-10-31T01:42:02;10.10;99.90
18426;DHT22;9340;48.756;9.226;2022-10-31T01:44:51;10.10;99.90
18426;DHT22;9340;48.756;9.226;2022-10-31T01:47:26;10.20;99.90
18426;DHT22;9340;48.756;9.226;2022-10-31T01:49:57;10.20;99.90
18426;DHT22;9340;48.756;9.226;2022-10-31T01:52:28;10.20;99.90
18426;DHT22;9340;48.756;9.226;2022-10-31T01:55:00;10.10;99.90
18426;DHT22;9340;48.756;9.226;2022-10-31T01:57:29;10.10;99.90
18426;DHT22;9340;48.756;9.226;2022-10-31T01:59:59;10.00;99.90
18426;DHT22;9340;48.756;9.226;2022-10-31T02:02:29;10.10;99.90
18426;DHT22;9340;48.756;9.226;2022-10-31T02:04:56;10.00;99.90
18426;DHT22;9340;48.756;9.226;2022-10-31T02:07:27;10.10;99.90
18426;DHT22;9340;48.756;9.226;2022-10-31T02:09:57;10.10;99.90
18426;DHT22;9340;48.756;9.226;2022-10-31T02:12:24;10.10;99.90
18426;DHT22;9340;48.756;9.226;2022-10-31T02:14:51;10.10;99.90
18426;DHT22;9340;48.756;9.226;2022-10-31T02:17:18;10.00;99.90
18426;DHT22;9340;48.756;9.226;2022-10-31T02:19:52;10.00;99.90
18426;DHT22;9340;48.756;9.226;2022-10-31T02:22:27;10.10;99.90
18426;DHT22;9340;48.756;9.226;2022-10-31T02:25:08;10.10;99.90
18426;DHT22;9340;48.756;9.226;2022-10-31T02:27:58;10.10;99.90
18426;DHT22;9340;48.756;9.226;2022-10-31T02:30:30;10.10;99.90
18426;DHT22;9340;48.756;9.226;2022-10-31T02:33:10;10.10;99.90
18426;DHT22;9340;48.756;9.226;2022-10-31T02:35:49;10.10;99.90
18426;DHT22;9340;48.756;9.226;2022-10-31T02:38:32;10.10;99.90
18426;DHT22;9340;48.756;9.226;2022-10-31T02:41:06;10.10;99.90
18426;DHT22;9340;48.756;9.226;2022-10-31T02:43:42;10.10;99.90
18426;DHT22;9340;48.756;9.226;2022-10-31T02:46:14;10.00;99.90
18426;DHT22;9340;48.756;9.226;2022-10-31T02:48:44;10.00;99.90
18426;DHT22;9340;48.756;9.226;2022-10-31T02:51:12;10.00;99.90
18426;DHT22;9340;48.756;9.226;2022-10-31T02:53:39;9.90;99.90
18426;DHT22;9340;48.756;9.226;2022-10-31T02:56:11;9.90;99.90
18426;DHT22;9340;48.756;9.226;2022-10-31T02:58:40;9.90;99.90
18426;DHT22;9340;48.756;9.226;2022-10-31T03:01:33;9.80;99.90
18426;DHT22;9340;48.756;9.226;2022-10-31T03:06:57;9.80;99.90
18426;DHT22;9340;48.756;9.226;2022-10-31T03:09:28;9.80;99.90
18426;DHT22;9340;48.756;9.226;2022-10-31T03:12:04;9.80;99.90
18426;DHT22;9340;48.756;9.226;2022-10-31T03:14:39;9.80;99.90
18426;DHT22;9340;48.756;9.226;2022-10-31T03:17:13;9.70;99.90
18426;DHT22;9340;48.756;9.226;2022-10-31T03:19:45;9.70;99.90
18426;DHT22;9340;48.756;9.226;2022-10-31T03:22:17;9.70;99.90
18426;DHT22;9340;48.756;9.226;2022-10-31T03:24:47;9.70;99.90
18426;DHT22;9340;48.756;9.226;2022-10-31T03:27:17;9.60;99.90
18426;DHT22;9340;48.756;9.226;2022-10-31T03:29:45;9.60;99.90
18426;DHT22;9340;48.756;9.226;2022-10-31T03:32:18;9.60;99.90
18426;DHT22;9340;48.756;9.226;2022-10-31T03:34:47;9.50;99.90
18426;DHT22;9340;48.756;9.226;2022-10-31T03:37:17;9.50;99.90
18426;DHT22;9340;48.756;9.226;2022-10-31T03:39:46;9.50;99.90
18426;DHT22;9340;48.756;9.226;2022-10-31T03:42:16;9.40;99.90
18426;DHT22;9340;48.756;9.226;2022-10-31T03:44:48;9.40;99.90
18426;DHT22;9340;48.756;9.226;2022-10-31T03:47:17;9.50;99.90
18426;DHT22;9340;48.756;9.226;2022-10-31T03:49:44;9.50;99.90
18426;DHT22;9340;48.756;9.226;2022-10-31T03:52:19;9.50;99.90
18426;DHT22;9340;48.756;9.226;2022-10-31T03:54:53;9.50;99.90
18426;DHT22;9340;48.756;9.226;2022-10-31T03:57:24;9.50;99.90
18426;DHT22;9340;48.756;9.226;2022-10-31T03:59:55;9.50;99.90
18426;DHT22;9340;48.756;9.226;2022-10-31T04:02:28;9.50;99.90
18426;DHT22;9340;48.756;9.226;2022-10-31T04:04:56;9.50;99.90
18426;DHT22;9340;48.756;9.226;2022-10-31T04:07:27;9.50;99.90
18426;DHT22;9340;48.756;9.226;2022-10-31T04:09:56;9.50;99.90
18426;DHT22;9340;48.756;9.226;2022-10-31T04:12:24;9.50;99.90
18426;DHT22;9340;48.756;9.226;2022-10-31T04:14:53;9.50;99.90
18426;DHT22;9340;48.756;9.226;2022-10-31T04:17:23;9.40;99.90
18426;DHT22;9340;48.756;9.226;2022-10-31T04:19:50;9.40;99.90
18426;DHT22;9340;48.756;9.226;2022-10-31T04:22:16;9.40;99.90
18426;DHT22;9340;48.756;9.226;2022-10-31T04:24:44;9.50;99.90
18426;DHT22;9340;48.756;9.226;2022-10-31T04:27:11;9.50;99.90
18426;DHT22;9340;48.756;9.226;2022-10-31T04:29:38;9.40;99.90
18426;DHT22;9340;48.756;9.226;2022-10-31T04:32:04;9.40;99.90
18426;DHT22;9340;48.756;9.226;2022-10-31T04:34:31;9.40;99.90
18426;DHT22;9340;48.756;9.226;2022-10-31T04:36:58;9.40;99.90
18426;DHT22;9340;48.756;9.226;2022-10-31T04:39:24;9.40;99.90
18426;DHT22;9340;48.756;9.226;2022-10-31T04:41:53;9.40;99.90
18426;DHT22;9340;48.756;9.226;2022-10-31T04:44:19;9.30;99.90
18426;DHT22;9340;48.756;9.226;2022-10-31T04:46:46;9.30;99.90
18426;DHT22;9340;48.756;9.226;2022-10-31T04:49:13;9.30;99.90
18426;DHT22;9340;48.756;9.226;2022-10-31T04:51:39;9.20;99.90
18426;DHT22;9340;48.756;9.226;2022-10-31T04:54:06;9.20;99.90
18426;DHT22;9340;48.756;9.226;2022-10-31T04:56:33;9.20;99.90
18426;DHT22;9340;48.756;9.226;2022-10-31T04:59:01;9.20;99.90
18426;DHT22;9340;48.756;9.226;2022-10-31T05:01:28;9.10;99.90
18426;DHT22;9340;48.756;9.226;2022-10-31T05:03:54;9.10;99.90
18426;DHT22;9340;48.756;9.226;2022-10-31T05:06:21;9.10;99.90
18426;DHT22;9340;48.756;9.226;2022-10-31T05:08:48;9.10;99.90
18426;DHT22;9340;48.756;9.226;2022-10-31T05:11:14;9.00;99.90
18426;DHT22;9340;48.756;9.226;2022-10-31T05:13:41;9.00;99.90
18426;DHT22;9340;48.756;9.226;2022-10-31T05:16:09;9.00;99.90
18426;DHT22;9340;48.756;9.226;2022-10-31T05:18:36;8.90;99.90
18426;DHT22;9340;48.756;9.226;2022-10-31T05:21:02;9.00;99.90
18426;DHT22;9340;48.756;9.226;2022-10-31T05:23:29;9.00;99.90
18426;DHT22;9340;48.756;9.226;2022-10-31T05:25:56;9.00;99.90
18426;DHT22;9340;48.756;9.226;2022-10-31T05:28:22;8.90;99.90
18426;DHT22;9340;48.756;9.226;2022-10-31T05:30:49;8.90;99.90
18426;DHT22;9340;48.756;9.226;2022-10-31T05:33:17;8.90;99.90
18426;DHT22;9340;48.756;9.226;2022-10-31T05:35:44;8.90;99.90
18426;DHT22;9340;48.756;9.226;2022-10-31T05:38:11;8.90;99.90
18426;DHT22;9340;48.756;9.226;2022-10-31T05:40:37;8.80;99.90
18426;DHT22;9340;48.756;9.226;2022-10-31T05:43:04;8.80;99.90
18426;DHT22;9340;48.756;9.226;2022-10-31T05:45:31;8.80;99.90
18426;DHT22;9340;48.756;9.226;2022-10-31T05:47:59;8.80;99.90
18426;DHT22;9340;48.756;9.226;2022-10-31T05:50:29;8.80;99.90
18426;DHT22;9340;48.756;9.226;2022-10-31T05:52:57;8.80;99.90
18426;DHT22;9340;48.756;9.226;2022-10-31T05:55:24;8.80;99.90
18426;DHT22;9340;48.756;9.226;2022-10-31T05:57:51;8.70;99.90
18426;DHT22;9340;48.756;9.226;2022-10-31T06:00:18;8.80;99.90
18426;DHT22;9340;48.756;9.226;2022-10-31T06:02:45;8.80;99.90
18426;DHT22;9340;48.756;9.226;2022-10-31T06:05:12;8.70;99.90
18426;DHT22;9340;48.756;9.226;2022-10-31T06:07:40;8.80;99.90
18426;DHT22;9340;48.756;9.226;2022-10-31T06:10:07;8.60;99.90
18426;DHT22;9340;48.756;9.226;2022-10-31T06:12:35;8.60;99.90
18426;DHT22;9340;48.756;9.226;2022-10-31T06:15:04;8.60;99.90
18426;DHT22;9340;48.756;9.226;2022-10-31T06:17:31;8.50;99.90
18426;DHT22;9340;48.756;9.226;2022-10-31T06:19:58;8.50;99.90
18426;DHT22;9340;48.756;9.226;2022-10-31T06:22:25;8.60;99.90
18426;DHT22;9340;48.756;9.226;2022-10-31T06:24:53;8.60;99.90
18426;DHT22;9340;48.756;9.226;2022-10-31T06:27:20;8.60;99.90
18426;DHT22;9340;48.756;9.226;2022-10-31T06:29:47;8.60;99.90
18426;DHT22;9340;48.756;9.226;2022-10-31T06:32:14;8.70;99.90
18426;DHT22;9340;48.756;9.226;2022-10-31T06:34:41;8.80;99.90
18426;DHT22;9340;48.756;9.226;2022-10-31T06:37:08;8.80;99.90
18426;DHT22;9340;48.756;9.226;2022-10-31T06:39:34;8.80;99.90
18426;DHT22;9340;48.756;9.226;2022-10-31T06:42:03;8.90;99.90
18426;DHT22;9340;48.756;9.226;2022-10-31T06:44:30;8.90;99.90
18426;DHT22;9340;48.756;9.226;2022-10-31T06:46:57;9.00;99.90
18426;DHT22;9340;48.756;9.226;2022-10-31T06:49:23;9.00;99.90
18426;DHT22;9340;48.756;9.226;2022-10-31T06:51:50;9.00;99.90
18426;DHT22;9340;48.756;9.226;2022-10-31T06:54:17;9.10;99.90
18426;DHT22;9340;48.756;9.226;2022-10-31T06:56:46;9.10;99.90
18426;DHT22;9340;48.756;9.226;2022-10-31T06:59:14;9.10;99.90
18426;DHT22;9340;48.756;9.226;2022-10-31T07:01:41;9.00;99.90
18426;DHT22;9340;48.756;9.226;2022-10-31T07:04:10;9.00;99.90
18426;DHT22;9340;48.756;9.226;2022-10-31T07:06:37;9.10;99.90
18426;DHT22;9340;48.756;9.226;2022-10-31T07:09:04;9.20;99.90
18426;DHT22;9340;48.756;9.226;2022-10-31T07:11:30;9.20;99.90
18426;DHT22;9340;48.756;9.226;2022-10-31T07:13:57;9.30;99.90
18426;DHT22;9340;48.756;9.226;2022-10-31T07:16:25;9.40;99.90
18426;DHT22;9340;48.756;9.226;2022-10-31T07:18:52;9.50;99.90
18426;DHT22;9340;48.756;9.226;2022-10-31T07:21:19;9.50;99.90
18426;DHT22;9340;48.756;9.226;2022-10-31T07:23:47;9.50;99.90
18426;DHT22;9340;48.756;9.226;2022-10-31T07:26:14;9.50;99.90
18426;DHT22;9340;48.756;9.226;2022-10-31T07:28:40;9.60;99.90
18426;DHT22;9340;48.756;9.226;2022-10-31T07:31:07;9.70;99.90
18426;DHT22;9340;48.756;9.226;2022-10-31T07:33:35;9.70;99.90
18426;DHT22;9340;48.756;9.226;2022-10-31T07:36:02;9.80;99.90
18426;DHT22;9340;48.756;9.226;2022-10-31T07:38:29;9.80;99.90
18426;DHT22;9340;48.756;9.226;2022-10-31T07:40:55;9.90;99.90
18426;DHT22;9340;48.756;9.226;2022-10-31T07:43:22;10.00;99.90
18426;DHT22;9340;48.756;9.226;2022-10-31T07:45:50;10.10;99.90
18426;DHT22;9340;48.756;9.226;2022-10-31T07:48:17;10.10;99.90
18426;DHT22;9340;48.756;9.226;2022-10-31T07:50:45;10.10;99.90
18426;DHT22;9340;48.756;9.226;2022-10-31T07:53:13;10.20;99.90
18426;DHT22;9340;48.756;9.226;2022-10-31T07:55:40;10.30;99.90
18426;DHT22;9340;48.756;9.226;2022-10-31T07:58:10;10.30;99.90
18426;DHT22;9340;48.756;9.226;2022-10-31T08:00:38;10.40;99.90
18426;DHT22;9340;48.756;9.226;2022-10-31T08:03:06;10.40;99.90
18426;DHT22;9340;48.756;9.226;2022-10-31T08:05:34;10.60;99.90
18426;DHT22;9340;48.756;9.226;2022-10-31T08:08:02;10.60;99.90
18426;DHT22;9340;48.756;9.226;2022-10-31T08:10:29;10.70;99.90
18426;DHT22;9340;48.756;9.226;2022-10-31T08:12:57;10.80;99.90
18426;DHT22;9340;48.756;9.226;2022-10-31T08:15:24;10.90;99.90
18426;DHT22;9340;48.756;9.226;2022-10-31T08:17:51;11.00;99.90
18426;DHT22;9340;48.756;9.226;2022-10-31T08:20:18;11.10;99.90
18426;DHT22;9340;48.756;9.226;2022-10-31T08:22:56;11.20;99.90
18426;DHT22;9340;48.756;9.226;2022-10-31T08:25:26;11.20;99.90
18426;DHT22;9340;48.756;9.226;2022-10-31T08:27:54;11.30;99.90
18426;DHT22;9340;48.756;9.226;2022-10-31T08:30:23;11.40;99.90
18426;DHT22;9340;48.756;9.226;2022-10-31T08:32:58;11.50;99.90
18426;DHT22;9340;48.756;9.226;2022-10-31T08:35:25;11.60;99.90
18426;DHT22;9340;48.756;9.226;2022-10-31T08:37:52;11.70;99.90
18426;DHT22;9340;48.756;9.226;2022-10-31T08:40:20;11.80;99.90
18426;DHT22;9340;48.756;9.226;2022-10-31T08:42:54;11.90;99.90
18426;DHT22;9340;48.756;9.226;2022-10-31T08:45:21;12.00;99.90
18426;DHT22;9340;48.756;9.226;2022-10-31T08:47:48;12.10;99.90
18426;DHT22;9340;48.756;9.226;2022-10-31T08:50:14;12.10;99.90
18426;DHT22;9340;48.756;9.226;2022-10-31T08:52:41;12.20;99.90
18426;DHT22;9340;48.756;9.226;2022-10-31T08:55:08;12.30;99.90
18426;DHT22;9340;48.756;9.226;2022-10-31T08:57:35;12.40;99.90
18426;DHT22;9340;48.756;9.226;2022-10-31T09:00:04;12.50;99.90
18426;DHT22;9340;48.756;9.226;2022-10-31T09:02:31;12.60;99.90
18426;DHT22;9340;48.756;9.226;2022-10-31T09:04:57;12.70;99.90
18426;DHT22;9340;48.756;9.226;2022-10-31T09:07:24;12.80;99.90
18426;DHT22;9340;48.756;9.226;2022-10-31T09:09:51;12.90;99.90
18426;DHT22;9340;48.756;9.226;2022-10-31T09:12:18;12.90;99.90
18426;DHT22;9340;48.756;9.226;2022-10-31T09:14:44;13.10;99.90
18426;DHT22;9340;48.756;9.226;2022-10-31T09:17:12;13.20;99.90
18426;DHT22;9340;48.756;9.226;2022-10-31T09:19:39;13.30;99.90
18426;DHT22;9340;48.756;9.226;2022-10-31T09:22:06;13.40;99.90
18426;DHT22;9340;48.756;9.226;2022-10-31T09:24:32;13.50;99.90
18426;DHT22;9340;48.756;9.226;2022-10-31T09:26:59;13.60;99.90
18426;DHT22;9340;48.756;9.226;2022-10-31T09:29:26;13.60;99.90
18426;DHT22;9340;48.756;9.226;2022-10-31T09:31:52;13.70;99.90
18426;DHT22;9340;48.756;9.226;2022-10-31T09:34:20;13.70;99.90
18426;DHT22;9340;48.756;9.226;2022-10-31T09:36:47;13.80;99.90
18426;DHT22;9340;48.756;9.226;2022-10-31T09:39:14;13.70;99.90
18426;DHT22;9340;48.756;9.226;2022-10-31T09:41:52;13.90;99.90
18426;DHT22;9340;48.756;9.226;2022-10-31T09:44:26;13.90;99.90
18426;DHT22;9340;48.756;9.226;2022-10-31T09:47:02;13.90;99.90
18426;DHT22;9340;48.756;9.226;2022-10-31T09:49:49;13.90;99.90
18426;DHT22;9340;48.756;9.226;2022-10-31T09:52:22;13.90;99.90
18426;DHT22;9340;48.756;9.226;2022-10-31T09:54:53;13.90;99.90
18426;DHT22;9340;48.756;9.226;2022-10-31T09:57:25;13.90;99.90
18426;DHT22;9340;48.756;9.226;2022-10-31T09:59:54;14.00;99.90
18426;DHT22;9340;48.756;9.226;2022-10-31T10:02:24;14.20;99.90
18426;DHT22;9340;48.756;9.226;2022-10-31T10:04:56;14.30;99.90
18426;DHT22;9340;48.756;9.226;2022-10-31T10:07:30;14.30;99.90
18426;DHT22;9340;48.756;9.226;2022-10-31T10:10:01;14.50;99.90
18426;DHT22;9340;48.756;9.226;2022-10-31T10:12:39;14.50;99.90
18426;DHT22;9340;48.756;9.226;2022-10-31T10:15:32;14.70;99.90
18426;DHT22;9340;48.756;9.226;2022-10-31T10:18:10;14.90;99.90
18426;DHT22;9340;48.756;9.226;2022-10-31T10:20:46;15.00;99.90
18426;DHT22;9340;48.756;9.226;2022-10-31T10:23:32;15.10;99.90
18426;DHT22;9340;48.756;9.226;2022-10-31T10:26:05;15.30;99.90
18426;DHT22;9340;48.756;9.226;2022-10-31T10:28:38;15.50;99.90
18426;DHT22;9340;48.756;9.226;2022-10-31T10:31:09;15.60;99.90
18426;DHT22;9340;48.756;9.226;2022-10-31T10:33:39;15.70;99.90
18426;DHT22;9340;48.756;9.226;2022-10-31T10:36:12;15.80;99.90
18426;DHT22;9340;48.756;9.226;2022-10-31T10:38:50;15.80;99.90
18426;DHT22;9340;48.756;9.226;2022-10-31T10:41:20;15.80;99.90
18426;DHT22;9340;48.756;9.226;2022-10-31T10:43:49;16.00;99.90
18426;DHT22;9340;48.756;9.226;2022-10-31T10:46:18;16.10;99.90
18426;DHT22;9340;48.756;9.226;2022-10-31T10:51:58;16.40;99.90
18426;DHT22;9340;48.756;9.226;2022-10-31T10:57:26;16.40;99.90
18426;DHT22;9340;48.756;9.226;2022-10-31T10:59:54;16.50;99.90
18426;DHT22;9340;48.756;9.226;2022-10-31T11:02:23;16.50;99.90
18426;DHT22;9340;48.756;9.226;2022-10-31T11:04:52;16.50;99.90
18426;DHT22;9340;48.756;9.226;2022-10-31T11:07:21;16.60;99.90
18426;DHT22;9340;48.756;9.226;2022-10-31T11:09:48;16.70;99.90
18426;DHT22;9340;48.756;9.226;2022-10-31T11:12:20;16.70;99.90
18426;DHT22;9340;48.756;9.226;2022-10-31T11:14:51;16.70;99.90
18426;DHT22;9340;48.756;9.226;2022-10-31T11:17:26;16.70;99.90
18426;DHT22;9340;48.756;9.226;2022-10-31T11:20:03;16.80;99.90
18426;DHT22;9340;48.756;9.226;2022-10-31T11:22:31;17.00;99.90
18426;DHT22;9340;48.756;9.226;2022-10-31T11:24:58;17.10;99.90
18426;DHT22;9340;48.756;9.226;2022-10-31T11:27:25;17.30;99.90
18426;DHT22;9340;48.756;9.226;2022-10-31T11:29:52;17.40;99.90
18426;DHT22;9340;48.756;9.226;2022-10-31T11:32:21;17.60;99.90
18426;DHT22;9340;48.756;9.226;2022-10-31T11:34:51;17.80;99.90
18426;DHT22;9340;48.756;9.226;2022-10-31T11:37:21;17.80;99.90
18426;DHT22;9340;48.756;9.226;2022-10-31T11:39:52;17.90;99.90
18426;DHT22;9340;48.756;9.226;2022-10-31T11:42:22;18.00;99.90
18426;DHT22;9340;48.756;9.226;2022-10-31T11:44:50;18.10;99.90
18426;DHT22;9340;48.756;9.226;2022-10-31T11:47:24;18.10;99.90
18426;DHT22;9340;48.756;9.226;2022-10-31T11:49:51;18.20;99.90
18426;DHT22;9340;48.756;9.226;2022-10-31T11:52:20;18.20;99.90
18426;DHT22;9340;48.756;9.226;2022-10-31T11:54:52;18.20;99.90
18426;DHT22;9340;48.756;9.226;2022-10-31T11:57:24;18.20;99.90
18426;DHT22;9340;48.756;9.226;2022-10-31T11:59:53;18.30;99.90
18426;DHT22;9340;48.756;9.226;2022-10-31T12:02:20;18.40;99.90
18426;DHT22;9340;48.756;9.226;2022-10-31T12:04:53;18.50;99.90
18426;DHT22;9340;48.756;9.226;2022-10-31T12:07:23;18.60;99.90
18426;DHT22;9340;48.756;9.226;2022-10-31T12:09:50;18.50;99.90
18426;DHT22;9340;48.756;9.226;2022-10-31T12:12:35;18.60;99.90
18426;DHT22;9340;48.756;9.226;2022-10-31T12:15:16;18.70;99.90
18426;DHT22;9340;48.756;9.226;2022-10-31T12:17:49;18.70;99.90
18426;DHT22;9340;48.756;9.226;2022-10-31T12:20:25;18.70;99.90
18426;DHT22;9340;48.756;9.226;2022-10-31T12:22:59;18.80;99.90
18426;DHT22;9340;48.756;9.226;2022-10-31T12:25:37;18.90;99.90
18426;DHT22;9340;48.756;9.226;2022-10-31T12:28:28;19.00;99.90
18426;DHT22;9340;48.756;9.226;2022-10-31T12:31:17;19.00;99.90
18426;DHT22;9340;48.756;9.226;2022-10-31T12:33:53;19.00;99.90
18426;DHT22;9340;48.756;9.226;2022-10-31T12:36:32;19.00;99.90
18426;DHT22;9340;48.756;9.226;2022-10-31T12:39:23;18.50;99.90
18426;DHT22;9340;48.756;9.226;2022-10-31T12:41:52;18.30;99.90
18426;DHT22;9340;48.756;9.226;2022-10-31T12:44:48;18.10;99.90
18426;DHT22;9340;48.756;9.226;2022-10-31T12:47:40;17.90;99.90
18426;DHT22;9340;48.756;9.226;2022-10-31T12:50:22;17.80;99.90
18426;DHT22;9340;48.756;9.226;2022-10-31T12:52:58;17.80;99.90
18426;DHT22;9340;48.756;9.226;2022-10-31T12:55:37;17.90;99.90
18426;DHT22;9340;48.756;9.226;2022-10-31T12:58:10;17.70;99.90
18426;DHT22;9340;48.756;9.226;2022-10-31T13:00:44;17.80;99.90
18426;DHT22;9340;48.756;9.226;2022-10-31T13:03:21;17.80;99.90
18426;DHT22;9340;48.756;9.226;2022-10-31T13:05:53;17.80;99.90
18426;DHT22;9340;48.756;9.226;2022-10-31T13:08:25;17.90;99.90
18426;DHT22;9340;48.756;9.226;2022-10-31T13:11:02;17.80;99.90
18426;DHT22;9340;48.756;9.226;2022-10-31T13:13:36;17.70;99.90
18426;DHT22;9340;48.756;9.226;2022-10-31T13:16:11;17.70;99.90
18426;DHT22;9340;48.756;9.226;2022-10-31T13:18:42;17.70;99.90
18426;DHT22;9340;48.756;9.226;2022-10-31T13:21:12;17.70;99.90
18426;DHT22;9340;48.756;9.226;2022-10-31T13:23:43;17.70;99.90
18426;DHT22;9340;48.756;9.226;2022-10-31T13:26:13;17.70;99.90
18426;DHT22;9340;48.756;9.226;2022-10-31T13:28:44;17.70;99.90
18426;DHT22;9340;48.756;9.226;2022-10-31T13:31:13;17.60;99.90
18426;DHT22;9340;48.756;9.226;2022-10-31T13:33:44;17.60;99.90
18426;DHT22;9340;48.756;9.226;2022-10-31T13:36:21;17.50;99.90
18426;DHT22;9340;48.756;9.226;2022-10-31T13:38:52;17.50;99.90
18426;DHT22;9340;48.756;9.226;2022-10-31T13:41:30;17.60;99.90
18426;DHT22;9340;48.756;9.226;2022-10-31T13:44:01;17.80;99.90
18426;DHT22;9340;48.756;9.226;2022-10-31T13:46:38;18.10;99.90
18426;DHT22;9340;48.756;9.226;2022-10-31T13:49:24;18.30;99.90
18426;DHT22;9340;48.756;9.226;2022-10-31T13:51:51;18.50;99.90
18426;DHT22;9340;48.756;9.226;2022-10-31T13:54:21;18.70;99.90
18426;DHT22;9340;48.756;9.226;2022-10-31T13:56:49;18.80;99.90
18426;DHT22;9340;48.756;9.226;2022-10-31T13:59:19;18.90;99.90
18426;DHT22;9340;48.756;9.226;2022-10-31T14:01:51;18.90;99.90
18426;DHT22;9340;48.756;9.226;2022-10-31T14:04:20;18.90;99.90
18426;DHT22;9340;48.756;9.226;2022-10-31T14:07:04;18.80;99.90
18426;DHT22;9340;48.756;9.226;2022-10-31T14:09:35;18.70;99.90
18426;DHT22;9340;48.756;9.226;2022-10-31T14:12:06;18.50;99.90
18426;DHT22;9340;48.756;9.226;2022-10-31T14:14:44;18.30;99.90
18426;DHT22;9340;48.756;9.226;2022-10-31T14:17:22;18.10;99.90
18426;DHT22;9340;48.756;9.226;2022-10-31T14:19:58;17.90;99.90
18426;DHT22;9340;48.756;9.226;2022-10-31T14:22:29;17.90;99.90
18426;DHT22;9340;48.756;9.226;2022-10-31T14:24:56;17.90;99.90
18426;DHT22;9340;48.756;9.226;2022-10-31T14:27:45;17.80;99.90
18426;DHT22;9340;48.756;9.226;2022-10-31T14:30:17;17.50;99.90
18426;DHT22;9340;48.756;9.226;2022-10-31T14:32:50;17.50;99.90
18426;DHT22;9340;48.756;9.226;2022-10-31T14:35:17;17.40;99.90
18426;DHT22;9340;48.756;9.226;2022-10-31T14:38:09;17.40;99.90
18426;DHT22;9340;48.756;9.226;2022-10-31T14:40:50;17.40;99.90
18426;DHT22;9340;48.756;9.226;2022-10-31T14:43:33;17.40;99.90
18426;DHT22;9340;48.756;9.226;2022-10-31T14:46:05;17.30;99.90
18426;DHT22;9340;48.756;9.226;2022-10-31T14:48:52;17.20;99.90
18426;DHT22;9340;48.756;9.226;2022-10-31T14:51:28;17.10;99.90
18426;DHT22;9340;48.756;9.226;2022-10-31T14:53:59;17.00;99.90
18426;DHT22;9340;48.756;9.226;2022-10-31T14:56:29;16.90;99.90
18426;DHT22;9340;48.756;9.226;2022-10-31T14:58:58;16.80;99.90
18426;DHT22;9340;48.756;9.226;2022-10-31T15:01:28;16.60;99.90
18426;DHT22;9340;48.756;9.226;2022-10-31T15:04:00;16.50;99.90
18426;DHT22;9340;48.756;9.226;2022-10-31T15:06:31;16.50;99.90
18426;DHT22;9340;48.756;9.226;2022-10-31T15:09:03;16.40;99.90
18426;DHT22;9340;48.756;9.226;2022-10-31T15:11:37;16.40;99.90
18426;DHT22;9340;48.756;9.226;2022-10-31T15:14:21;16.40;99.90
18426;DHT22;9340;48.756;9.226;2022-10-31T15:16:48;16.30;99.90
18426;DHT22;9340;48.756;9.226;2022-10-31T15:19:20;16.30;99.90
18426;DHT22;9340;48.756;9.226;2022-10-31T15:21:47;16.30;99.90
18426;DHT22;9340;48.756;9.226;2022-10-31T15:24:17;16.30;99.90
18426;DHT22;9340;48.756;9.226;2022-10-31T15:26:47;16.20;99.90
18426;DHT22;9340;48.756;9.226;2022-10-31T15:29:15;16.20;99.90
18426;DHT22;9340;48.756;9.226;2022-10-31T15:31:49;16.10;99.90
18426;DHT22;9340;48.756;9.226;2022-10-31T15:34:22;15.90;99.90
18426;DHT22;9340;48.756;9.226;2022-10-31T15:36:49;15.80;99.90
18426;DHT22;9340;48.756;9.226;2022-10-31T15:39:16;15.80;99.90
18426;DHT22;9340;48.756;9.226;2022-10-31T15:41:49;15.70;99.90
18426;DHT22;9340;48.756;9.226;2022-10-31T15:44:21;15.60;99.90
18426;DHT22;9340;48.756;9.226;2022-10-31T15:46:56;15.40;99.90
18426;DHT22;9340;48.756;9.226;2022-10-31T15:49:34;15.30;99.90
18426;DHT22;9340;48.756;9.226;2022-10-31T15:52:14;15.10;99.90
18426;DHT22;9340;48.756;9.226;2022-10-31T15:54:46;15.00;99.90
18426;DHT22;9340;48.756;9.226;2022-10-31T15:57:13;14.90;99.90
18426;DHT22;9340;48.756;9.226;2022-10-31T15:59:42;14.70;99.90
18426;DHT22;9340;48.756;9.226;2022-10-31T16:02:12;14.60;99.90
18426;DHT22;9340;48.756;9.226;2022-10-31T16:04:50;14.50;99.90
18426;DHT22;9340;48.756;9.226;2022-10-31T16:07:19;14.40;99.90
18426;DHT22;9340;48.756;9.226;2022-10-31T16:09:54;14.30;99.90
18426;DHT22;9340;48.756;9.226;2022-10-31T16:12:23;14.20;99.90
18426;DHT22;9340;48.756;9.226;2022-10-31T16:14:52;14.20;99.90
18426;DHT22;9340;48.756;9.226;2022-10-31T16:17:21;14.20;99.90
18426;DHT22;9340;48.756;9.226;2022-10-31T16:19:52;14.10;99.90